createdAt,value
2022-10-30T00:00:47.220Z,5.45
2022-10-30T00:03:14.814Z,5.82
2022-10-30T00:05:43.289Z,6.00
2022-10-30T00:08:13.630Z,5.43
2022-10-30T00:10:40.659Z,5.78
2022-10-30T00:13:07.790Z,5.70
2022-10-30T00:15:34.556Z,5.47
2022-10-30T00:18:01.658Z,5.40
2022-10-30T00:20:28.222Z,5.60
2022-10-30T00:22:55.163Z,5.15
2022-10-30T00:25:22.199Z,4.80
2022-10-30T00:27:48.812Z,5.28
2022-10-30T00:30:16.445Z,5.93
2022-10-30T00:32:43.899Z,5.50
2022-10-30T00:35:11.223Z,5.45
2022-10-30T00:37:37.805Z,7.32
2022-10-30T00:40:05.162Z,6.72
2022-10-30T00:42:32.256Z,5.35
2022-10-30T00:44:59.049Z,5.00
2022-10-30T00:47:35.362Z,5.50
2022-10-30T00:53:06.942Z,5.63
2022-10-30T00:55:40.058Z,5.38
2022-10-30T00:58:08.583Z,5.13
2022-10-30T01:03:02.018Z,4.93
2022-10-30T01:05:30.204Z,5.90
2022-10-30T01:07:57.076Z,5.05
2022-10-30T01:10:24.158Z,5.60
2022-10-30T01:12:51.609Z,6.05
2022-10-30T01:15:21.732Z,5.60
2022-10-30T01:18:12.684Z,4.90
2022-10-30T01:20:56.833Z,5.45
2022-10-30T01:23:29.238Z,5.57
2022-10-30T01:26:31.326Z,5.18
2022-10-30T01:29:09.996Z,4.90
2022-10-30T01:31:51.674Z,6.32
2022-10-30T01:34:46.154Z,5.28
2022-10-30T01:37:32.960Z,5.25
2022-10-30T01:40:06.541Z,5.10
2022-10-30T01:42:44.146Z,5.38
2022-10-30T01:45:33.989Z,5.00
2022-10-30T01:48:28.558Z,5.40
2022-10-30T01:51:18.837Z,5.43
2022-10-30T01:53:59.045Z,5.35
2022-10-30T01:56:46.160Z,6.22
2022-10-30T01:59:17.495Z,5.30
2022-10-30T02:01:44.366Z,5.57
2022-10-30T02:04:12.675Z,5.10
2022-10-30T02:06:39.609Z,6.07
2022-10-30T02:09:06.711Z,5.70
2022-10-30T02:11:34.229Z,4.85
2022-10-30T02:14:06.664Z,5.15
2022-10-30T02:16:35.947Z,5.45
2022-10-30T02:19:03.373Z,5.78
2022-10-30T02:21:30.424Z,5.70
2022-10-30T02:23:56.982Z,4.65
2022-10-30T02:26:23.539Z,4.80
2022-10-30T02:28:50.145Z,5.45
2022-10-30T02:31:16.694Z,4.70
2022-10-30T02:33:47.220Z,4.90
2022-10-30T02:36:15.658Z,4.55
2022-10-30T02:41:09.296Z,4.03
2022-10-30T02:43:35.886Z,4.57
2022-10-30T02:46:02.487Z,4.63
2022-10-30T02:48:30.707Z,5.05
2022-10-30T02:51:01.291Z,4.60
2022-10-30T02:53:28.274Z,4.72
2022-10-30T02:55:54.965Z,4.25
2022-10-30T02:58:21.540Z,4.28
2022-10-30T03:00:48.206Z,4.03
2022-10-30T03:03:17.481Z,4.57
2022-10-30T03:05:46.792Z,3.90
2022-10-30T03:08:13.352Z,4.25
2022-10-30T03:10:39.957Z,3.88
2022-10-30T03:13:06.508Z,3.70
2022-10-30T03:15:33.072Z,3.97
2022-10-30T03:17:59.793Z,4.40
2022-10-30T03:20:26.531Z,4.15
2022-10-30T03:22:53.132Z,4.50
2022-10-30T03:25:23.894Z,4.40
2022-10-30T03:27:50.906Z,3.95
2022-10-30T03:30:18.031Z,3.33
2022-10-30T03:32:44.618Z,4.38
2022-10-30T03:35:11.221Z,4.40
2022-10-30T03:37:37.778Z,3.92
2022-10-30T03:40:04.594Z,4.10
2022-10-30T03:42:31.139Z,3.80
2022-10-30T03:44:57.676Z,3.92
2022-10-30T03:47:24.231Z,4.00
2022-10-30T03:49:50.802Z,4.13
2022-10-30T03:52:17.380Z,3.63
2022-10-30T03:54:43.929Z,3.90
2022-10-30T03:57:10.585Z,4.53
2022-10-30T03:59:37.131Z,4.05
2022-10-30T04:02:03.887Z,3.83
2022-10-30T04:04:30.515Z,4.15
2022-10-30T04:06:57.256Z,4.20
2022-10-30T04:09:23.792Z,4.25
2022-10-30T04:11:50.345Z,3.72
2022-10-30T04:14:16.894Z,3.35
2022-10-30T04:16:43.454Z,3.85
2022-10-30T04:19:10.020Z,4.40
2022-10-30T04:21:36.638Z,4.10
2022-10-30T04:24:03.263Z,4.22
2022-10-30T04:26:29.821Z,4.53
2022-10-30T04:28:56.370Z,3.97
2022-10-30T04:31:22.937Z,4.47
2022-10-30T04:33:49.474Z,4.38
2022-10-30T04:36:18.038Z,4.28
2022-10-30T04:41:11.085Z,4.47
2022-10-30T04:43:37.679Z,4.82
2022-10-30T04:46:05.800Z,4.20
2022-10-30T04:48:35.019Z,4.32
2022-10-30T04:51:01.631Z,4.40
2022-10-30T04:53:28.196Z,4.07
2022-10-30T04:55:55.338Z,4.18
2022-10-30T04:58:21.939Z,3.90
2022-10-30T05:00:48.481Z,3.97
2022-10-30T05:03:23.333Z,4.07
2022-10-30T05:05:57.726Z,4.05
2022-10-30T05:08:24.283Z,4.22
2022-10-30T05:10:50.883Z,3.75
2022-10-30T05:13:17.414Z,3.88
2022-10-30T05:15:43.987Z,4.18
2022-10-30T05:18:10.822Z,3.80
2022-10-30T05:20:37.421Z,3.97
2022-10-30T05:23:04.260Z,4.15
2022-10-30T05:25:30.930Z,4.75
2022-10-30T05:28:01.850Z,4.65
2022-10-30T05:30:32.015Z,4.10
2022-10-30T05:33:04.552Z,4.53
2022-10-30T05:35:34.976Z,4.97
2022-10-30T05:38:03.348Z,4.75
2022-10-30T05:40:29.911Z,4.88
2022-10-30T05:42:57.044Z,5.25
2022-10-30T05:45:23.867Z,4.25
2022-10-30T05:48:02.632Z,5.82
2022-10-30T05:50:29.752Z,5.05
2022-10-30T05:52:57.143Z,4.97
2022-10-30T05:55:24.292Z,4.90
2022-10-30T05:57:50.924Z,4.40
2022-10-30T06:00:17.639Z,5.05
2022-10-30T06:02:44.252Z,4.63
2022-10-30T06:05:10.841Z,4.70
2022-10-30T06:07:37.384Z,5.05
2022-10-30T06:10:05.271Z,4.30
2022-10-30T06:12:32.346Z,4.65
2022-10-30T06:14:58.891Z,4.25
2022-10-30T06:17:25.445Z,4.60
2022-10-30T06:19:52.607Z,4.72
2022-10-30T06:22:19.148Z,4.97
2022-10-30T06:24:45.718Z,4.50
2022-10-30T06:27:12.279Z,5.00
2022-10-30T06:29:39.073Z,4.50
2022-10-30T06:32:06.888Z,4.68
2022-10-30T06:34:33.783Z,5.28
2022-10-30T06:37:00.425Z,5.28
2022-10-30T06:39:27.391Z,4.40
2022-10-30T06:41:54.123Z,5.03
2022-10-30T06:44:20.671Z,4.53
2022-10-30T06:46:47.247Z,5.15
2022-10-30T06:49:14.167Z,5.28
2022-10-30T06:51:40.956Z,5.00
2022-10-30T06:54:07.548Z,4.50
2022-10-30T06:56:34.170Z,5.10
2022-10-30T06:59:00.782Z,4.82
2022-10-30T07:01:27.529Z,5.30
2022-10-30T07:03:54.180Z,4.55
2022-10-30T07:06:20.998Z,5.47
2022-10-30T07:08:47.596Z,5.07
2022-10-30T07:11:14.246Z,6.25
2022-10-30T07:13:40.820Z,6.22
2022-10-30T07:16:07.535Z,5.95
2022-10-30T07:18:34.105Z,4.88
2022-10-30T07:21:00.684Z,5.05
2022-10-30T07:23:27.288Z,5.53
2022-10-30T07:25:53.864Z,5.05
2022-10-30T07:28:20.396Z,6.53
2022-10-30T07:30:46.981Z,4.97
2022-10-30T07:33:13.585Z,5.47
2022-10-30T07:35:40.139Z,5.55
2022-10-30T07:38:10.299Z,5.53
2022-10-30T07:40:37.206Z,5.70
2022-10-30T07:43:04.878Z,5.65
2022-10-30T07:45:31.902Z,6.50
2022-10-30T07:47:58.771Z,5.15
2022-10-30T07:50:25.810Z,5.82
2022-10-30T07:52:52.382Z,5.90
2022-10-30T07:55:19.012Z,5.95
2022-10-30T07:57:45.603Z,4.80
2022-10-30T08:00:14.820Z,5.30
2022-10-30T08:02:42.409Z,5.55
2022-10-30T08:05:09.782Z,5.00
2022-10-30T08:07:38.258Z,5.82
2022-10-30T08:10:06.326Z,6.53
2022-10-30T08:12:34.292Z,5.95
2022-10-30T08:15:01.296Z,5.70
2022-10-30T08:17:27.966Z,4.68
2022-10-30T08:19:55.461Z,5.10
2022-10-30T08:22:22.060Z,4.93
2022-10-30T08:24:48.625Z,5.25
2022-10-30T08:27:15.188Z,5.18
2022-10-30T08:29:42.128Z,5.85
2022-10-30T08:32:08.801Z,4.40
2022-10-30T08:34:35.417Z,4.93
2022-10-30T08:37:02.095Z,4.32
2022-10-30T08:39:28.674Z,4.60
2022-10-30T08:42:00.169Z,4.53
2022-10-30T08:44:26.831Z,4.60
2022-10-30T08:46:53.467Z,5.10
2022-10-30T08:49:20.050Z,5.72
2022-10-30T08:51:46.766Z,5.03
2022-10-30T08:54:13.379Z,4.93
2022-10-30T08:56:39.957Z,5.15
2022-10-30T08:59:06.585Z,4.70
2022-10-30T09:01:33.247Z,4.75
2022-10-30T09:03:59.919Z,4.55
2022-10-30T09:06:26.526Z,4.72
2022-10-30T09:08:53.206Z,3.72
2022-10-30T09:11:19.878Z,5.07
2022-10-30T09:13:46.678Z,4.60
2022-10-30T09:16:13.225Z,4.13
2022-10-30T09:18:39.766Z,4.40
2022-10-30T09:21:06.370Z,4.65
2022-10-30T09:23:32.953Z,4.43
2022-10-30T09:25:59.506Z,5.53
2022-10-30T09:28:26.051Z,5.13
2022-10-30T09:30:56.406Z,4.72
2022-10-30T09:33:23.299Z,4.55
2022-10-30T09:35:49.878Z,4.93
2022-10-30T09:38:16.478Z,3.90
2022-10-30T09:40:42.982Z,4.60
2022-10-30T09:43:24.612Z,4.80
2022-10-30T09:46:14.383Z,4.43
2022-10-30T09:48:50.306Z,4.65
2022-10-30T09:51:35.374Z,4.97
2022-10-30T09:54:22.622Z,4.70
2022-10-30T09:56:58.059Z,4.95
2022-10-30T09:59:30.895Z,4.40
2022-10-30T10:02:35.232Z,4.50
2022-10-30T10:05:06.197Z,4.32
2022-10-30T10:07:37.959Z,4.57
2022-10-30T10:10:10.025Z,4.68
2022-10-30T10:12:43.777Z,4.53
2022-10-30T10:15:38.501Z,4.53
2022-10-30T10:18:12.773Z,4.38
2022-10-30T10:20:44.198Z,4.40
2022-10-30T10:23:32.792Z,4.57
2022-10-30T10:26:02.571Z,4.85
2022-10-30T10:28:57.553Z,4.57
2022-10-30T10:31:55.435Z,4.28
2022-10-30T10:34:25.487Z,4.68
2022-10-30T10:36:58.229Z,5.72
2022-10-30T10:39:24.739Z,4.90
2022-10-30T10:42:18.387Z,4.50
2022-10-30T10:45:18.879Z,4.15
2022-10-30T10:48:39.505Z,3.75
2022-10-30T10:51:29.428Z,4.50
2022-10-30T10:54:11.870Z,4.53
2022-10-30T10:56:40.934Z,6.32
2022-10-30T10:59:17.968Z,6.10
2022-10-30T11:01:51.373Z,5.50
2022-10-30T11:04:45.688Z,4.90
2022-10-30T11:07:21.117Z,4.40
2022-10-30T11:09:51.764Z,5.32
2022-10-30T11:12:21.196Z,4.45
2022-10-30T11:14:47.802Z,4.70
2022-10-30T11:17:38.939Z,5.90
2022-10-30T11:20:19.583Z,4.78
2022-10-30T11:22:50.308Z,4.45
2022-10-30T11:25:32.446Z,5.53
2022-10-30T11:28:04.603Z,5.10
2022-10-30T11:30:31.601Z,5.13
2022-10-30T11:32:59.559Z,4.65
2022-10-30T11:35:26.640Z,4.78
2022-10-30T11:38:13.933Z,5.00
2022-10-30T11:40:46.989Z,4.22
2022-10-30T11:43:16.359Z,3.90
2022-10-30T11:45:43.534Z,4.13
2022-10-30T11:48:40.121Z,3.45
2022-10-30T11:51:06.796Z,4.25
2022-10-30T11:53:40.107Z,3.75
2022-10-30T11:56:19.715Z,3.80
2022-10-30T11:58:49.918Z,4.85
2022-10-30T12:01:24.053Z,4.22
2022-10-30T12:03:51.149Z,4.25
2022-10-30T12:06:35.826Z,4.15
2022-10-30T12:09:09.514Z,3.75
2022-10-30T12:11:36.816Z,3.90
2022-10-30T12:14:04.100Z,3.53
2022-10-30T12:16:30.979Z,3.85
2022-10-30T12:19:01.744Z,3.83
2022-10-30T12:21:31.005Z,4.05
2022-10-30T12:24:06.764Z,3.42
2022-10-30T12:26:36.506Z,4.22
2022-10-30T12:29:06.412Z,3.83
2022-10-30T12:31:37.757Z,4.00
2022-10-30T12:34:35.416Z,4.18
2022-10-30T12:37:08.144Z,4.75
2022-10-30T12:39:37.716Z,3.53
2022-10-30T12:42:08.176Z,3.75
2022-10-30T12:44:41.892Z,3.70
2022-10-30T12:47:30.832Z,4.20
2022-10-30T12:50:14.843Z,4.38
2022-10-30T12:52:57.066Z,3.83
2022-10-30T12:55:39.595Z,4.30
2022-10-30T12:58:26.712Z,4.53
2022-10-30T13:01:02.160Z,3.80
2022-10-30T13:03:38.187Z,3.28
2022-10-30T13:06:17.004Z,3.83
2022-10-30T13:08:52.781Z,4.10
2022-10-30T13:11:29.255Z,3.75
2022-10-30T13:13:57.972Z,3.67
2022-10-30T13:16:29.399Z,3.50
2022-10-30T13:19:03.570Z,3.72
2022-10-30T13:21:41.461Z,3.30
2022-10-30T13:24:25.450Z,3.40
2022-10-30T13:27:14.548Z,4.00
2022-10-30T13:29:45.230Z,4.03
2022-10-30T13:32:26.826Z,3.63
2022-10-30T13:35:17.029Z,3.72
2022-10-30T13:37:52.149Z,3.55
2022-10-30T13:40:57.017Z,3.38
2022-10-30T13:43:43.723Z,3.30
2022-10-30T13:46:17.832Z,3.22
2022-10-30T13:49:03.218Z,3.72
2022-10-30T13:52:12.315Z,3.15
2022-10-30T13:54:42.623Z,3.20
2022-10-30T13:57:18.469Z,3.25
2022-10-30T14:00:07.393Z,3.03
2022-10-30T14:02:40.390Z,3.55
2022-10-30T14:05:31.860Z,3.28
2022-10-30T14:08:20.399Z,3.17
2022-10-30T14:10:49.822Z,3.28
2022-10-30T14:13:29.515Z,2.72
2022-10-30T14:16:05.934Z,3.22
2022-10-30T14:18:46.851Z,3.30
2022-10-30T14:21:38.314Z,3.00
2022-10-30T14:24:22.960Z,3.28
2022-10-30T14:26:55.362Z,4.00
2022-10-30T14:29:36.784Z,3.58
2022-10-30T14:32:23.234Z,3.20
2022-10-30T14:34:55.846Z,3.42
2022-10-30T14:37:27.023Z,3.55
2022-10-30T14:39:55.037Z,3.65
2022-10-30T14:42:40.494Z,3.83
2022-10-30T14:45:58.343Z,3.85
2022-10-30T14:51:18.512Z,4.00
2022-10-30T14:54:11.922Z,3.92
2022-10-30T14:56:53.017Z,4.28
2022-10-30T14:59:22.548Z,4.10
2022-10-30T15:01:54.842Z,4.28
2022-10-30T15:05:09.929Z,4.78
2022-10-30T15:08:06.406Z,3.95
2022-10-30T15:10:34.893Z,4.10
2022-10-30T15:15:43.515Z,6.75
2022-10-30T15:18:19.583Z,13.00
2022-10-30T15:20:53.880Z,13.13
2022-10-30T15:23:25.574Z,9.07
2022-10-30T15:25:58.476Z,8.93
2022-10-30T15:28:33.200Z,6.70
2022-10-30T15:31:08.673Z,5.10
2022-10-30T15:33:37.941Z,4.50
2022-10-30T15:36:05.550Z,4.75
2022-10-30T15:38:32.432Z,4.88
2022-10-30T15:41:03.122Z,5.38
2022-10-30T15:43:32.195Z,6.45
2022-10-30T15:45:58.934Z,8.35
2022-10-30T15:48:30.727Z,8.20
2022-10-30T15:51:05.639Z,6.30
2022-10-30T15:53:38.267Z,19.23
2022-10-30T15:56:07.537Z,12.18
2022-10-30T15:58:37.102Z,12.52
2022-10-30T16:01:03.811Z,19.95
2022-10-30T16:03:30.496Z,14.38
2022-10-30T16:06:05.266Z,7.78
2022-10-30T16:08:31.842Z,6.25
2022-10-30T16:10:58.399Z,5.13
2022-10-30T16:13:31.776Z,5.18
2022-10-30T16:15:58.967Z,5.00
2022-10-30T16:18:27.745Z,5.10
2022-10-30T16:20:56.912Z,5.00
2022-10-30T16:23:24.719Z,5.07
2022-10-30T16:25:56.568Z,5.25
2022-10-30T16:28:32.873Z,5.07
2022-10-30T16:31:02.172Z,5.55
2022-10-30T16:33:30.008Z,5.32
2022-10-30T16:35:57.050Z,5.22
2022-10-30T16:38:24.683Z,6.68
2022-10-30T16:40:51.632Z,6.13
2022-10-30T16:43:27.454Z,5.75
2022-10-30T16:45:55.207Z,5.78
2022-10-30T16:48:28.142Z,5.13
2022-10-30T16:51:02.271Z,5.40
2022-10-30T16:53:29.241Z,6.82
2022-10-30T16:55:57.513Z,5.88
2022-10-30T16:58:26.992Z,6.05
2022-10-30T17:01:01.841Z,6.68
2022-10-30T17:03:28.938Z,5.70
2022-10-30T17:06:01.509Z,6.35
2022-10-30T17:08:35.885Z,6.28
2022-10-30T17:11:04.947Z,6.95
2022-10-30T17:13:36.518Z,5.90
2022-10-30T17:16:12.595Z,5.57
2022-10-30T17:18:39.368Z,6.15
2022-10-30T17:21:12.177Z,5.75
2022-10-30T17:23:49.726Z,6.13
2022-10-30T17:26:16.837Z,6.67
2022-10-30T17:28:43.446Z,6.22
2022-10-30T17:31:25.800Z,5.63
2022-10-30T17:34:15.337Z,5.63
2022-10-30T17:36:42.387Z,6.25
2022-10-30T17:39:08.998Z,6.78
2022-10-30T17:41:36.074Z,6.95
2022-10-30T17:44:02.870Z,6.20
2022-10-30T17:46:29.393Z,6.40
2022-10-30T17:48:58.088Z,5.65
2022-10-30T17:51:25.424Z,6.10
2022-10-30T17:53:52.313Z,5.85
2022-10-30T17:56:30.049Z,7.22
2022-10-30T17:58:56.681Z,7.57
2022-10-30T18:01:26.998Z,6.05
2022-10-30T18:03:57.512Z,7.78
2022-10-30T18:06:26.541Z,7.50
2022-10-30T18:08:53.576Z,7.78
2022-10-30T18:11:22.866Z,7.15
2022-10-30T18:13:51.138Z,7.00
2022-10-30T18:16:18.862Z,7.18
2022-10-30T18:18:46.065Z,6.55
2022-10-30T18:21:17.607Z,7.45
2022-10-30T18:23:52.473Z,6.40
2022-10-30T18:26:25.022Z,7.13
2022-10-30T18:28:52.174Z,6.97
2022-10-30T18:31:21.497Z,7.32
2022-10-30T18:33:48.370Z,6.78
2022-10-30T18:36:17.873Z,7.28
2022-10-30T18:38:44.577Z,7.60
2022-10-30T18:41:33.692Z,9.82
2022-10-30T18:44:00.393Z,8.63
2022-10-30T18:46:27.265Z,8.80
2022-10-30T18:48:53.806Z,8.60
2022-10-30T18:51:25.509Z,8.23
2022-10-30T18:53:52.696Z,8.20
2022-10-30T18:56:21.077Z,8.77
2022-10-30T18:58:47.963Z,8.25
2022-10-30T19:01:15.900Z,9.13
2022-10-30T19:03:42.915Z,8.88
2022-10-30T19:06:20.735Z,8.82
2022-10-30T19:08:47.742Z,11.25
2022-10-30T19:11:18.796Z,12.18
2022-10-30T19:13:48.786Z,12.30
2022-10-30T19:16:19.215Z,10.82
2022-10-30T19:18:46.303Z,10.38
2022-10-30T19:21:18.674Z,9.23
2022-10-30T19:23:45.409Z,9.77
2022-10-30T19:26:14.515Z,9.48
2022-10-30T19:28:41.640Z,8.25
2022-10-30T19:31:10.007Z,9.15
2022-10-30T19:33:36.545Z,8.48
2022-10-30T19:36:07.394Z,8.60
2022-10-30T19:38:34.037Z,7.90
2022-10-30T19:41:00.841Z,8.13
2022-10-30T19:43:27.424Z,7.63
2022-10-30T19:45:56.809Z,8.23
2022-10-30T19:48:47.792Z,6.93
2022-10-30T19:51:11.872Z,7.15
2022-10-30T19:53:39.609Z,7.45
2022-10-30T19:56:06.529Z,8.10
2022-10-30T19:58:33.184Z,7.70
2022-10-30T20:00:59.810Z,8.10
2022-10-30T20:03:26.467Z,8.68
2022-10-30T20:05:54.246Z,7.95
2022-10-30T20:08:23.258Z,6.97
2022-10-30T20:10:57.728Z,7.88
2022-10-30T20:13:25.450Z,8.45
2022-10-30T20:15:53.430Z,7.67
2022-10-30T20:18:22.815Z,8.00
2022-10-30T20:20:54.588Z,8.70
2022-10-30T20:23:22.618Z,8.48
2022-10-30T20:25:51.027Z,9.50
2022-10-30T20:28:25.023Z,9.02
2022-10-30T20:30:52.751Z,9.30
2022-10-30T20:33:20.388Z,8.75
2022-10-30T20:35:48.093Z,8.37
2022-10-30T20:38:22.633Z,8.87
2022-10-30T20:40:49.450Z,8.80
2022-10-30T20:43:18.038Z,9.57
2022-10-30T20:48:11.516Z,8.40
2022-10-30T20:50:38.507Z,8.00
2022-10-30T20:53:05.419Z,9.35
2022-10-30T20:55:34.909Z,8.38
2022-10-30T20:58:02.487Z,8.52
2022-10-30T21:00:29.367Z,7.47
2022-10-30T21:02:56.015Z,8.80
2022-10-30T21:05:42.589Z,10.75
2022-10-30T21:08:09.126Z,10.57
2022-10-30T21:10:39.186Z,10.77
2022-10-30T21:13:08.874Z,10.13
2022-10-30T21:15:41.519Z,9.98
2022-10-30T21:18:09.321Z,10.40
2022-10-30T21:20:37.214Z,9.67
2022-10-30T21:23:04.059Z,9.98
2022-10-30T21:25:32.391Z,9.27
2022-10-30T21:30:25.720Z,8.70
2022-10-30T21:32:52.271Z,8.70
2022-10-30T21:35:19.393Z,8.55
2022-10-30T21:37:46.027Z,8.90
2022-10-30T21:40:13.072Z,8.73
2022-10-30T21:42:39.633Z,8.90
2022-10-30T21:45:06.990Z,8.45
2022-10-30T21:47:33.570Z,8.43
2022-10-30T21:50:00.130Z,8.80
2022-10-30T21:52:26.674Z,8.68
2022-10-30T21:54:53.210Z,8.35
2022-10-30T21:57:19.799Z,8.30
2022-10-30T21:59:46.423Z,8.45
2022-10-30T22:02:16.122Z,9.02
2022-10-30T22:04:42.771Z,8.60
2022-10-30T22:07:09.364Z,9.27
2022-10-30T22:09:36.053Z,8.38
2022-10-30T22:12:02.610Z,9.27
2022-10-30T22:14:29.436Z,8.45
2022-10-30T22:16:56.148Z,8.45
2022-10-30T22:19:22.745Z,9.75
2022-10-30T22:21:49.302Z,10.07
2022-10-30T22:24:17.301Z,10.25
2022-10-30T22:26:43.861Z,10.50
2022-10-30T22:29:11.674Z,9.55
2022-10-30T22:31:38.256Z,11.20
2022-10-30T22:34:04.882Z,10.07
2022-10-30T22:36:32.922Z,11.18
2022-10-30T22:39:07.399Z,10.75
2022-10-30T22:41:37.470Z,10.35
2022-10-30T22:44:07.959Z,9.77
2022-10-30T22:46:35.564Z,10.60
2022-10-30T22:49:02.251Z,10.70
2022-10-30T22:51:31.997Z,9.75
2022-10-30T22:54:00.684Z,10.43
2022-10-30T22:56:29.831Z,8.75
2022-10-30T22:58:57.033Z,8.35
2022-10-30T23:01:26.445Z,8.68
2022-10-30T23:03:55.505Z,10.60
2022-10-30T23:06:22.343Z,8.52
2022-10-30T23:08:49.390Z,8.52
2022-10-30T23:11:16.134Z,9.05
2022-10-30T23:13:42.767Z,9.40
2022-10-30T23:16:13.070Z,7.35
2022-10-30T23:18:39.633Z,9.75
2022-10-30T23:21:08.710Z,11.05
2022-10-30T23:23:38.989Z,11.82
2022-10-30T23:26:13.790Z,11.65
2022-10-30T23:28:40.779Z,12.68
2022-10-30T23:31:11.167Z,13.20
2022-10-30T23:33:37.711Z,12.45
2022-10-30T23:36:04.691Z,11.60
2022-10-30T23:38:31.339Z,11.88
2022-10-30T23:40:57.935Z,10.23
2022-10-30T23:43:24.611Z,10.55
2022-10-30T23:45:51.335Z,10.38
2022-10-30T23:48:17.903Z,10.77
2022-10-30T23:50:44.437Z,10.98
2022-10-30T23:53:11.006Z,10.35
2022-10-30T23:55:37.569Z,10.82
2022-10-30T23:58:04.357Z,10.02
